Aviation Digital Data Service (ADDS)

Output produced by METARs form (1445 UTC 23 January 2019)
found at http://www.aviationweather.gov/metar/data/
 
Forecast for: LYBT (BATAJNICA , CS)
Text: TAF LYBT 231100Z 2312/2412 VRB02KT 2000 BR BKN005 OVC010 TX01/2312Z TNM01/2405Z
Forecast period: 1200 UTC 23 January 2019 to 0100 UTC 24 January 2019
Forecast type: FROM: standard forecast or significant change
Winds: variable direction winds at 2 MPH (2 knots; 1.0 m/s)
Visibility: 1.24 miles (2.00 km)
Ceiling: 500 feet AGL
Clouds: broken clouds at 500 feet AGL
overcast cloud deck at 1000 feet AGL
Weather: BR  (mist)
Text: TEMPO 2312/2315 4000 SCT010 OVC015
Forecast period: 1200 to 1500 UTC 23 January 2019
Forecast type: TEMPORARY: The following changes expected for less than half the time period
Visibility: 2.49 miles (4.01 km)
Ceiling: 1500 feet AGL
Clouds: scattered clouds at 1000 feet AGL
overcast cloud deck at 1500 feet AGL
Weather: no significant weather forecast for this period
Text: BECMG 2401/2403 34010KT 1500 -SN BKN002 BKN020
Forecast period: 0100 to 1200 UTC 24 January 2019
Forecast type: BECOMING: Conditions expected to become as follows by 0300 UTC 24 January 2019
Winds: from the NNW (340 degrees) at 12 MPH (10 knots; 5.1 m/s)
Visibility: 0.93 miles (1.50 km)
Ceiling: 200 feet AGL
Clouds: broken clouds at 200 feet AGL
broken clouds at 2000 feet AGL
Weather: -SN  (light snow)